Ship Status Report: callsign XCAJ3

sailwx.info

Track history (hours):
 
Tides and Currents Weather Stations Pressure Air Temp Water Temp Dewpoint Dewpoint Depression Visibility Wind Speed Wind Dir Waves Ship Positions

Callsign XCAJ3 (name unknown)

Last reported at 2018-Jun-12 14:30 UTC. Time now 2018-Aug-14 07:04 UTC.
Position N 19°12' W 096°08'.
Warning: this ship's position is months out of date.

Date/timePositionNaut miles runAvg speedWind from/ knotsBaromVisibWave heightAir tempDewpointWater temp
2018-Jun-12 14:30N 19°12' W 096°08'0 0.0
2018-Jun-12 13:59N 19°12' W 096°08'2 4.4
2018-Jun-12 13:28N 19°12' W 096°05'2 4.7
2018-Jun-12 12:59N 19°12' W 096°08'0 0.0
2018-Jun-12 12:29N 19°12' W 096°08'0 0.0
2018-Jun-12 11:59N 19°12' W 096°08'0 0.0
2018-Jun-12 11:29N 19°12' W 096°08'0 0.0
2018-Jun-12 10:59N 19°12' W 096°08'0 0.0
2018-Jun-12 10:29N 19°12' W 096°08'0 0.0
2018-Jun-12 09:56N 19°12' W 096°08'0 0.0
2018-Jun-12 09:29N 19°12' W 096°08'0 0.0
2018-Jun-12 08:59N 19°12' W 096°08'1 2.7
2018-Jun-12 08:30N 19°12' W 096°06'0 0.2
2018-Jun-12 07:59N 19°12' W 096°06'2 3.0
2018-Jun-12 07:29N 19°12' W 096°08'0 0.5
2018-Jun-12 06:58N 19°12' W 096°08'0 0.1
2018-Jun-12 06:29N 19°12' W 096°08'0 0.0
2018-Jun-12 05:59N 19°12' W 096°08'0 0.0
2018-Jun-12 05:29N 19°12' W 096°08'0 0.0
2018-Jun-12 04:59N 19°12' W 096°08'0 0.0
2018-Jun-12 04:29N 19°12' W 096°08'3 5.5
2018-Jun-12 04:00N 19°12' W 096°05'3 5.1
2018-Jun-12 03:28N 19°12' W 096°08'0 0.0
2018-Jun-12 02:57N 19°12' W 096°08'2 4.9
2018-Jun-12 02:30N 19°12' W 096°05'1 2.9
2018-Jun-12 02:00N 19°12' W 096°07'1 1.3
2018-Jun-12 01:29N 19°12' W 096°06'2 3.5
2018-Jun-12 01:00N 19°12' W 096°08'0 0.6
2018-Jun-12 00:29N 19°12' W 096°08'0 0.0
2018-Jun-11 23:56N 19°12' W 096°08'0 0.0
2018-Jun-11 23:29N 19°12' W 096°08'0 0.0
2018-Jun-11 22:59N 19°12' W 096°08'0 0.0
2018-Jun-11 22:29N 19°12' W 096°08'0 0.0
2018-Jun-11 21:56N 19°12' W 096°08'0 0.0
2018-Jun-11 21:26N 19°12' W 096°08'0 0.0
2018-Jun-11 20:59N 19°12' W 096°08'0 0.0
2018-Jun-11 20:29N 19°12' W 096°08'0 0.0
2018-Jun-11 19:59N 19°12' W 096°08'0 0.0
2018-Jun-11 19:29N 19°12' W 096°08'0 0.0
2018-Jun-11 18:59N 19°12' W 096°08'0 0.0
2018-Jun-11 18:29N 19°12' W 096°08'1 1.8
2018-Jun-11 18:00N 19°13' W 096°08'1 2.9
2018-Jun-11 17:30N 19°12' W 096°07'3 5.2
2018-Jun-11 16:59N 19°12' W 096°04'4 7.4
2018-Jun-11 16:30N 19°12' W 096°08'0 0.0
2018-Jun-11 16:00N 19°12' W 096°08'0 0.0
2018-Jun-11 15:30N 19°12' W 096°08'0 0.0
2018-Jun-11 15:00N 19°12' W 096°08'0 0.0
2018-Jun-11 14:30N 19°12' W 096°08'0 0.0
2018-Jun-11 14:00N 19°12' W 096°08'0 0.0
2018-Jun-11 13:27N 19°12' W 096°08'0 0.0
2018-Jun-11 13:00N 19°12' W 096°08'0 0.1
2018-Jun-11 12:31N 19°12' W 096°08'0 0.5
2018-Jun-11 12:00N 19°12' W 096°08'0 0.0
2018-Jun-11 11:30N 19°12' W 096°08'0 0.0
2018-Jun-11 11:00N 19°12' W 096°08'0 0.0
2018-Jun-11 10:30N 19°12' W 096°08'0 0.0
2018-Jun-11 10:00N 19°12' W 096°08'0 0.0
2018-Jun-11 09:30N 19°12' W 096°08'0 0.0
2018-Jun-11 09:00N 19°12' W 096°08'0 0.0
2018-Jun-11 08:30N 19°12' W 096°08'0 0.0
2018-Jun-11 08:00N 19°12' W 096°08'0 0.0
2018-Jun-11 07:30N 19°12' W 096°08'0 0.0
2018-Jun-11 07:00N 19°12' W 096°08'0 0.0
2018-Jun-11 06:30N 19°12' W 096°08'0 0.0
2018-Jun-11 06:00N 19°12' W 096°08'0 0.0
2018-Jun-11 05:29N 19°12' W 096°08'0 0.0
2018-Jun-11 04:59N 19°12' W 096°08'0 0.0
2018-Jun-11 04:29N 19°12' W 096°08'0 0.0
2018-Jun-11 03:59N 19°12' W 096°08'0 0.0
2018-Jun-11 03:29N 19°12' W 096°08'0 0.0
2018-Jun-11 02:59N 19°12' W 096°08'0 0.0
2018-Jun-11 02:26N 19°12' W 096°08'0 0.0
2018-Jun-11 01:59N 19°12' W 096°08'0 0.0
2018-Jun-11 01:29N 19°12' W 096°08'0 0.0
2018-Jun-11 00:59N 19°12' W 096°08'0 0.0
2018-Jun-11 00:29N 19°12' W 096°08'0 0.0
2018-Jun-10 23:59N 19°12' W 096°08'0 0.0
2018-Jun-10 23:29N 19°12' W 096°08'0 0.0
2018-Jun-10 22:59N 19°12' W 096°08'0 0.0
2018-Jun-10 22:29N 19°12' W 096°08'0 0.0
2018-Jun-10 21:59N 19°12' W 096°08'0 0.0
2018-Jun-10 21:29N 19°12' W 096°08'0 0.0
2018-Jun-10 20:59N 19°12' W 096°08'0 0.0
2018-Jun-10 20:29N 19°12' W 096°08'0 0.0
2018-Jun-10 19:59N 19°12' W 096°08'3 5.3
2018-Jun-10 19:29N 19°12' W 096°05'3 5.5
2018-Jun-10 18:59N 19°12' W 096°08'0 0.0
2018-Jun-10 18:30N 19°12' W 096°08'0 0.0
2018-Jun-10 18:00N 19°12' W 096°08'0 0.0
2018-Jun-10 17:30N 19°12' W 096°08'0 0.0
2018-Jun-10 17:00N 19°12' W 096°08'0 0.0
2018-Jun-10 16:30N 19°12' W 096°08'0 0.0
2018-Jun-10 16:00N 19°12' W 096°08'2 4.2
2018-Jun-10 15:30N 19°12' W 096°06'2 4.0
2018-Jun-10 14:59N 19°12' W 096°08'0 0.3
2018-Jun-10 13:59N 19°12' W 096°08'0 0.0
2018-Jun-10 13:29N 19°12' W 096°08'0 0.0
2018-Jun-10 12:59N 19°12' W 096°08'0 0.0
2018-Jun-10 12:29N 19°12' W 096°08'0 0.0
2018-Jun-10 11:59N 19°12' W 096°08'0 0.0
2018-Jun-10 11:29N 19°12' W 096°08'0 0.0
2018-Jun-10 10:59N 19°12' W 096°08'0 0.0
2018-Jun-10 10:23N 19°12' W 096°08'0 0.0
2018-Jun-10 09:59N 19°12' W 096°08'0 0.0
2018-Jun-10 09:29N 19°12' W 096°08'0 0.0
2018-Jun-10 08:59N 19°12' W 096°08'0 0.0
2018-Jun-10 08:29N 19°12' W 096°08'0 0.0
2018-Jun-10 07:56N 19°12' W 096°08'0 0.0
2018-Jun-10 07:29N 19°12' W 096°08'0 0.0
2018-Jun-10 06:59N 19°12' W 096°08'0 0.0
2018-Jun-10 06:29N 19°12' W 096°08'0 0.0
2018-Jun-10 05:59N 19°12' W 096°08'0 0.0
2018-Jun-10 05:29N 19°12' W 096°08'0 0.0
2018-Jun-10 04:56N 19°12' W 096°08'0 0.6
2018-Jun-10 04:30N 19°12' W 096°08'0 0.0
2018-Jun-10 03:57N 19°12' W 096°08'0 0.0
2018-Jun-10 03:30N 19°12' W 096°08'0 0.0
2018-Jun-10 03:00N 19°12' W 096°08'0 0.0
2018-Jun-10 02:30N 19°12' W 096°08'0 0.0
2018-Jun-10 01:57N 19°12' W 096°08'0 0.0
2018-Jun-10 01:30N 19°12' W 096°08'0 0.0
2018-Jun-10 01:00N 19°12' W 096°08'0 0.0
2018-Jun-10 00:30N 19°12' W 096°08'0 0.0
2018-Jun-09 23:57N 19°12' W 096°08'0 0.0
2018-Jun-09 23:30N 19°12' W 096°08'0 0.0
2018-Jun-09 23:00N 19°12' W 096°08'0 0.0
2018-Jun-09 22:30N 19°12' W 096°08'0 0.0
2018-Jun-09 21:57N 19°12' W 096°08'0 0.0
2018-Jun-09 21:30N 19°12' W 096°08'0 0.0
2018-Jun-09 21:00N 19°12' W 096°08'0 0.0
2018-Jun-09 20:30N 19°12' W 096°08'0 0.0
2018-Jun-09 19:57N 19°12' W 096°08'0 0.0
2018-Jun-09 19:30N 19°12' W 096°08'0 0.0
2018-Jun-09 19:00N 19°12' W 096°08'1 1.1
2018-Jun-09 18:30N 19°12' W 096°08'1 1.0
2018-Jun-09 17:57N 19°12' W 096°08'0 0.6
2018-Jun-09 17:30N 19°12' W 096°08'1 2.6
2018-Jun-09 16:59N 19°12' W 096°06'2 3.2
2018-Jun-09 16:30N 19°12' W 096°08'0 0.0
2018-Jun-09 15:57N 19°12' W 096°08'1 0.9
2018-Jun-09 14:56N 19°13' W 096°08'1 2.0
2018-Jun-09 14:30N 19°12' W 096°07'0 0.7
2018-Jun-09 13:59N 19°12' W 096°08'0 0.0
2018-Jun-09 13:28N 19°12' W 096°08'0 0.0
2018-Jun-09 12:58N 19°12' W 096°08'0 0.0
2018-Jun-09 12:28N 19°12' W 096°08'0 0.0
2018-Jun-09 11:58N 19°12' W 096°08'0 0.0
2018-Jun-09 11:28N 19°12' W 096°08'0 0.0
2018-Jun-09 10:58N 19°12' W 096°08'0 0.0
2018-Jun-09 10:28N 19°12' W 096°08'0 0.0
2018-Jun-09 09:58N 19°12' W 096°08'0 0.0
2018-Jun-09 09:28N 19°12' W 096°08'0 0.0
2018-Jun-09 08:58N 19°12' W 096°08'0 0.0
2018-Jun-09 08:28N 19°12' W 096°08'1 1.3
2018-Jun-09 08:00N 19°12' W 096°08'0 0.5
2018-Jun-09 07:29N 19°12' W 096°08'2 4.5
2018-Jun-09 06:59N 19°12' W 096°06'2 4.1
2018-Jun-09 06:28N 19°12' W 096°08'0 0.0
2018-Jun-09 05:58N 19°12' W 096°08'0 0.0
2018-Jun-09 05:28N 19°12' W 096°08'0 0.0
2018-Jun-09 04:58N 19°12' W 096°08'0 0.0
2018-Jun-09 04:28N 19°12' W 096°08'0 0.0
2018-Jun-09 03:58N 19°12' W 096°08'0 0.0
2018-Jun-09 03:28N 19°12' W 096°08'0 0.0
2018-Jun-09 02:58N 19°12' W 096°08'0 0.0
2018-Jun-09 02:28N 19°12' W 096°08'0 0.0
2018-Jun-09 01:58N 19°12' W 096°08'0 0.0
2018-Jun-09 01:28N 19°12' W 096°08'0 0.0
2018-Jun-09 00:58N 19°12' W 096°08'0 0.0
2018-Jun-09 00:25N 19°12' W 096°08'0 0.0
2018-Jun-08 23:58N 19°12' W 096°08'0 0.0
2018-Jun-08 23:30N 19°12' W 096°08'1 1.1
2018-Jun-08 22:58N 19°12' W 096°07'1 2.0
2018-Jun-08 22:30N 19°12' W 096°08'1 1.2
2018-Jun-08 21:59N 19°12' W 096°08'0 0.0
2018-Jun-08 21:29N 19°12' W 096°08'0 0.0
2018-Jun-08 20:54N 19°12' W 096°08'0 0.0
2018-Jun-08 20:30N 19°12' W 096°08'0 0.0
2018-Jun-08 19:59N 19°12' W 096°08'0 0.0
2018-Jun-08 19:29N 19°12' W 096°08'0 0.0
2018-Jun-08 18:59N 19°12' W 096°08'0 0.0
2018-Jun-08 18:29N 19°12' W 096°08'0 0.0
2018-Jun-08 17:56N 19°12' W 096°08'2 4.7
2018-Jun-08 17:28N 19°12' W 096°05'2 4.0
2018-Jun-08 16:55N 19°12' W 096°08'1 1.3
2018-Jun-08 16:29N 19°13' W 096°08'1 1.7
2018-Jun-08 15:59N 19°12' W 096°08'0 0.0
2018-Jun-08 15:29N 19°12' W 096°08'0 0.0
2018-Jun-08 14:59N 19°12' W 096°08'0 0.0
2018-Jun-08 14:30N 19°12' W 096°08'0 0.0
2018-Jun-08 14:00N 19°12' W 096°08'1 1.1
2018-Jun-08 13:30N 19°12' W 096°07'2 3.7
2018-Jun-08 13:00N 19°12' W 096°05'3 6.5
2018-Jun-08 12:29N 19°12' W 096°02'3 5.4
2018-Jun-08 12:00N 19°12' W 096°04'3 5.1
2018-Jun-08 11:27N 19°12' W 096°07'0 0.7
2018-Jun-08 10:55N 19°12' W 096°08'3 7.6
2018-Jun-08 10:30N 19°11' W 096°04'3 6.4
2018-Jun-08 10:00N 19°12' W 096°08'0 0.0
2018-Jun-08 09:30N 19°12' W 096°08'0 0.0
2018-Jun-08 09:00N 19°12' W 096°08'0 0.0
2018-Jun-08 08:27N 19°12' W 096°08'0 0.0
2018-Jun-08 08:00N 19°12' W 096°08'0 0.0
2018-Jun-08 07:27N 19°12' W 096°08'0 0.0
2018-Jun-08 07:00N 19°12' W 096°08'0 0.0
2018-Jun-08 06:27N 19°12' W 096°08'0 0.0
2018-Jun-08 05:57N 19°12' W 096°08'0 0.0
2018-Jun-08 05:30N 19°12' W 096°08'0 0.0
2018-Jun-08 05:00N 19°12' W 096°08'0 0.0
2018-Jun-08 04:30N 19°12' W 096°08'0 0.0
2018-Jun-08 04:00N 19°12' W 096°08'0 0.0
2018-Jun-08 03:27N 19°12' W 096°08'0 0.0
2018-Jun-08 03:00N 19°12' W 096°08'0 0.0
2018-Jun-08 02:30N 19°12' W 096°08'0 0.0
2018-Jun-08 02:00N 19°12' W 096°08'0 0.7
2018-Jun-08 01:31N 19°12' W 096°08'0 0.9
2018-Jun-08 01:00N 19°13' W 096°08'0 0.8
2018-Jun-08 00:30N 19°12' W 096°08'0 0.4
2018-Jun-07 23:52N 19°12' W 096°08'1 1.7
2018-Jun-07 23:29N 19°13' W 096°08'1 1.6
2018-Jun-07 22:59N 19°12' W 096°08'0 0.0
2018-Jun-07 22:26N 19°12' W 096°08'0 0.0
2018-Jun-07 21:59N 19°12' W 096°08'0 0.0
2018-Jun-07 21:29N 19°12' W 096°08'0 0.0
2018-Jun-07 20:56N 19°12' W 096°08'0 0.0
2018-Jun-07 20:29N 19°12' W 096°08'0 0.0
2018-Jun-07 19:59N 19°12' W 096°08'0 0.0
2018-Jun-07 19:29N 19°12' W 096°08'0 0.0
2018-Jun-07 18:59N 19°12' W 096°08'0 0.0
2018-Jun-07 18:29N 19°12' W 096°08'0 0.0
2018-Jun-07 17:59N 19°12' W 096°08'0 0.0
2018-Jun-07 17:29N 19°12' W 096°08'0 0.0
2018-Jun-07 16:59N 19°12' W 096°08'0 0.0
2018-Jun-07 16:29N 19°12' W 096°08'0 1.0
2018-Jun-07 16:00N 19°12' W 096°08'0 0.3
2018-Jun-07 15:26N 19°12' W 096°08'0 0.7
2018-Jun-07 14:58N 19°12' W 096°08'0 0.0
2018-Jun-07 14:30N 19°12' W 096°08'0 0.5
2018-Jun-07 13:59N 19°12' W 096°08'0 0.0
2018-Jun-07 13:26N 19°12' W 096°08'0 0.0
2018-Jun-07 12:56N 19°12' W 096°08'0 0.0
2018-Jun-07 12:29N 19°12' W 096°08'0 0.0
2018-Jun-07 11:53N 19°12' W 096°08'0 1.1
2018-Jun-07 11:30N 19°13' W 096°08'1 1.2
2018-Jun-07 10:59N 19°12' W 096°08'3 5.1
2018-Jun-07 10:30N 19°12' W 096°05'3 4.3
2018-Jun-07 09:53N 19°12' W 096°08'0 0.0
2018-Jun-07 09:29N 19°12' W 096°08'0 0.0
2018-Jun-07 08:59N 19°12' W 096°08'0 0.0
2018-Jun-07 08:29N 19°12' W 096°08'0 0.0
2018-Jun-07 07:59N 19°12' W 096°08'0 0.0
2018-Jun-07 07:23N 19°12' W 096°08'0 0.0
2018-Jun-07 06:59N 19°12' W 096°08'0 0.0
2018-Jun-07 06:29N 19°12' W 096°08'0 0.0
2018-Jun-07 05:59N 19°12' W 096°08'0 0.0
2018-Jun-07 05:29N 19°12' W 096°08'0 0.0
2018-Jun-07 04:59N 19°12' W 096°08'0 0.0
2018-Jun-07 04:29N 19°12' W 096°08'0 0.0
2018-Jun-07 03:59N 19°12' W 096°08'0 0.0
2018-Jun-07 03:29N 19°12' W 096°08'0 0.0
2018-Jun-07 02:59N 19°12' W 096°08'0 0.0
2018-Jun-07 02:29N 19°12' W 096°08'0 0.0
2018-Jun-07 01:59N 19°12' W 096°08'0 0.0
2018-Jun-07 01:29N 19°12' W 096°08'0 0.0
2018-Jun-07 00:59N 19°12' W 096°08'0 0.0
2018-Jun-07 00:29N 19°12' W 096°08'0 0.0
2018-Jun-06 23:59N 19°12' W 096°08'0 0.0
2018-Jun-06 23:29N 19°12' W 096°08'0 0.0
2018-Jun-06 22:59N 19°12' W 096°08'0 0.0
2018-Jun-06 22:26N 19°12' W 096°08'0 0.0
2018-Jun-06 21:56N 19°12' W 096°08'0 0.0
2018-Jun-06 21:29N 19°12' W 096°08'0 0.0
2018-Jun-06 20:59N 19°12' W 096°08'0 0.0
2018-Jun-06 20:29N 19°12' W 096°08'0 0.0
2018-Jun-06 19:56N 19°12' W 096°08'0 0.0
2018-Jun-06 19:29N 19°12' W 096°08'0 0.0
2018-Jun-06 18:59N 19°12' W 096°08'0 0.0
2018-Jun-06 18:29N 19°12' W 096°08'0 0.0
2018-Jun-06 17:56N 19°12' W 096°08'0 0.0
2018-Jun-06 17:29N 19°12' W 096°08'0 0.0
2018-Jun-06 16:59N 19°12' W 096°08'0 0.0
2018-Jun-06 16:29N 19°12' W 096°08'0 0.0
2018-Jun-06 15:59N 19°12' W 096°08'0 0.0
2018-Jun-06 15:29N 19°12' W 096°08'0 0.0
2018-Jun-06 06:08N 19°12' W 096°08'0 2.0
2018-Jun-06 06:00N 19°12' W 096°08'1 1.3
2018-Jun-06 05:30N 19°13' W 096°08'3 5.2
2018-Jun-06 04:58N 19°12' W 096°05'1 3.1
2018-Jun-06 04:30N 19°12' W 096°04'4 7.1
2018-Jun-06 03:58N 19°12' W 096°08'0 0.0
2018-Jun-06 03:25N 19°12' W 096°08'0 0.0
2018-Jun-06 02:58N 19°12' W 096°08'0 0.0
2018-Jun-06 02:28N 19°12' W 096°08'0 0.0
2018-Jun-06 01:58N 19°12' W 096°08'0 0.0
2018-Jun-06 01:28N 19°12' W 096°08'0 0.0
2018-Jun-06 00:58N 19°12' W 096°08'0 0.0
2018-Jun-06 00:28N 19°12' W 096°08'0 0.0
2018-Jun-05 23:59N 19°12' W 096°08'0 0.0
2018-Jun-05 23:30N 19°12' W 096°08'0 0.0
2018-Jun-05 22:57N 19°12' W 096°08'0 0.0
2018-Jun-05 22:29N 19°12' W 096°08'0 0.0
2018-Jun-05 21:55N 19°12' W 096°08'0 0.0
2018-Jun-05 21:28N 19°12' W 096°08'0 0.0
2018-Jun-05 20:58N 19°12' W 096°08'  
Track history (hours):
 
Tides and Currents Weather Stations Pressure Air Temp Water Temp Dewpoint Dewpoint Depression Visibility Wind Speed Wind Dir Waves Ship Positions

Callsign XCAJ3 (name unknown)

Last reported at 2018-Jun-12 14:30 UTC. Time now 2018-Aug-14 07:04 UTC.
Position N 19°12' W 096°08'.
Warning: this ship's position is months out of date.

Date/timePositionNaut miles runAvg speedWind from/ knotsBaromVisibWave heightAir tempDewpointWater temp
2018-Jun-12 14:30N 19°12' W 096°08'0 0.0
2018-Jun-12 13:59N 19°12' W 096°08'2 4.4
2018-Jun-12 13:28N 19°12' W 096°05'2 4.7
2018-Jun-12 12:59N 19°12' W 096°08'0 0.0
2018-Jun-12 12:29N 19°12' W 096°08'0 0.0
2018-Jun-12 11:59N 19°12' W 096°08'0 0.0
2018-Jun-12 11:29N 19°12' W 096°08'0 0.0
2018-Jun-12 10:59N 19°12' W 096°08'0 0.0
2018-Jun-12 10:29N 19°12' W 096°08'0 0.0
2018-Jun-12 09:56N 19°12' W 096°08'0 0.0
2018-Jun-12 09:29N 19°12' W 096°08'0 0.0
2018-Jun-12 08:59N 19°12' W 096°08'1 2.7
2018-Jun-12 08:30N 19°12' W 096°06'0 0.2
2018-Jun-12 07:59N 19°12' W 096°06'2 3.0
2018-Jun-12 07:29N 19°12' W 096°08'0 0.5
2018-Jun-12 06:58N 19°12' W 096°08'0 0.1
2018-Jun-12 06:29N 19°12' W 096°08'0 0.0
2018-Jun-12 05:59N 19°12' W 096°08'0 0.0
2018-Jun-12 05:29N 19°12' W 096°08'0 0.0
2018-Jun-12 04:59N 19°12' W 096°08'0 0.0
2018-Jun-12 04:29N 19°12' W 096°08'3 5.5
2018-Jun-12 04:00N 19°12' W 096°05'3 5.1
2018-Jun-12 03:28N 19°12' W 096°08'0 0.0
2018-Jun-12 02:57N 19°12' W 096°08'2 4.9
2018-Jun-12 02:30N 19°12' W 096°05'1 2.9
2018-Jun-12 02:00N 19°12' W 096°07'1 1.3
2018-Jun-12 01:29N 19°12' W 096°06'2 3.5
2018-Jun-12 01:00N 19°12' W 096°08'0 0.6
2018-Jun-12 00:29N 19°12' W 096°08'0 0.0
2018-Jun-11 23:56N 19°12' W 096°08'0 0.0
2018-Jun-11 23:29N 19°12' W 096°08'0 0.0
2018-Jun-11 22:59N 19°12' W 096°08'0 0.0
2018-Jun-11 22:29N 19°12' W 096°08'0 0.0
2018-Jun-11 21:56N 19°12' W 096°08'0 0.0
2018-Jun-11 21:26N 19°12' W 096°08'0 0.0
2018-Jun-11 20:59N 19°12' W 096°08'0 0.0
2018-Jun-11 20:29N 19°12' W 096°08'0 0.0
2018-Jun-11 19:59N 19°12' W 096°08'0 0.0
2018-Jun-11 19:29N 19°12' W 096°08'0 0.0
2018-Jun-11 18:59N 19°12' W 096°08'0 0.0
2018-Jun-11 18:29N 19°12' W 096°08'1 1.8
2018-Jun-11 18:00N 19°13' W 096°08'1 2.9
2018-Jun-11 17:30N 19°12' W 096°07'3 5.2
2018-Jun-11 16:59N 19°12' W 096°04'4 7.4
2018-Jun-11 16:30N 19°12' W 096°08'0 0.0
2018-Jun-11 16:00N 19°12' W 096°08'0 0.0
2018-Jun-11 15:30N 19°12' W 096°08'0 0.0
2018-Jun-11 15:00N 19°12' W 096°08'0 0.0
2018-Jun-11 14:30N 19°12' W 096°08'0 0.0
2018-Jun-11 14:00N 19°12' W 096°08'0 0.0
2018-Jun-11 13:27N 19°12' W 096°08'0 0.0
2018-Jun-11 13:00N 19°12' W 096°08'0 0.1
2018-Jun-11 12:31N 19°12' W 096°08'0 0.5
2018-Jun-11 12:00N 19°12' W 096°08'0 0.0
2018-Jun-11 11:30N 19°12' W 096°08'0 0.0
2018-Jun-11 11:00N 19°12' W 096°08'0 0.0
2018-Jun-11 10:30N 19°12' W 096°08'0 0.0
2018-Jun-11 10:00N 19°12' W 096°08'0 0.0
2018-Jun-11 09:30N 19°12' W 096°08'0 0.0
2018-Jun-11 09:00N 19°12' W 096°08'0 0.0
2018-Jun-11 08:30N 19°12' W 096°08'0 0.0
2018-Jun-11 08:00N 19°12' W 096°08'0 0.0
2018-Jun-11 07:30N 19°12' W 096°08'0 0.0
2018-Jun-11 07:00N 19°12' W 096°08'0 0.0
2018-Jun-11 06:30N 19°12' W 096°08'0 0.0
2018-Jun-11 06:00N 19°12' W 096°08'0 0.0
2018-Jun-11 05:29N 19°12' W 096°08'0 0.0
2018-Jun-11 04:59N 19°12' W 096°08'0 0.0
2018-Jun-11 04:29N 19°12' W 096°08'0 0.0
2018-Jun-11 03:59N 19°12' W 096°08'0 0.0
2018-Jun-11 03:29N 19°12' W 096°08'0 0.0
2018-Jun-11 02:59N 19°12' W 096°08'0 0.0
2018-Jun-11 02:26N 19°12' W 096°08'0 0.0
2018-Jun-11 01:59N 19°12' W 096°08'0 0.0
2018-Jun-11 01:29N 19°12' W 096°08'0 0.0
2018-Jun-11 00:59N 19°12' W 096°08'0 0.0
2018-Jun-11 00:29N 19°12' W 096°08'0 0.0
2018-Jun-10 23:59N 19°12' W 096°08'0 0.0
2018-Jun-10 23:29N 19°12' W 096°08'0 0.0
2018-Jun-10 22:59N 19°12' W 096°08'0 0.0
2018-Jun-10 22:29N 19°12' W 096°08'0 0.0
2018-Jun-10 21:59N 19°12' W 096°08'0 0.0
2018-Jun-10 21:29N 19°12' W 096°08'0 0.0
2018-Jun-10 20:59N 19°12' W 096°08'0 0.0
2018-Jun-10 20:29N 19°12' W 096°08'0 0.0
2018-Jun-10 19:59N 19°12' W 096°08'3 5.3
2018-Jun-10 19:29N 19°12' W 096°05'3 5.5
2018-Jun-10 18:59N 19°12' W 096°08'0 0.0
2018-Jun-10 18:30N 19°12' W 096°08'0 0.0
2018-Jun-10 18:00N 19°12' W 096°08'0 0.0
2018-Jun-10 17:30N 19°12' W 096°08'0 0.0
2018-Jun-10 17:00N 19°12' W 096°08'0 0.0
2018-Jun-10 16:30N 19°12' W 096°08'0 0.0
2018-Jun-10 16:00N 19°12' W 096°08'2 4.2
2018-Jun-10 15:30N 19°12' W 096°06'2 4.0
2018-Jun-10 14:59N 19°12' W 096°08'0 0.3
2018-Jun-10 13:59N 19°12' W 096°08'0 0.0
2018-Jun-10 13:29N 19°12' W 096°08'0 0.0
2018-Jun-10 12:59N 19°12' W 096°08'0 0.0
2018-Jun-10 12:29N 19°12' W 096°08'0 0.0
2018-Jun-10 11:59N 19°12' W 096°08'0 0.0
2018-Jun-10 11:29N 19°12' W 096°08'0 0.0
2018-Jun-10 10:59N 19°12' W 096°08'0 0.0
2018-Jun-10 10:23N 19°12' W 096°08'0 0.0
2018-Jun-10 09:59N 19°12' W 096°08'0 0.0
2018-Jun-10 09:29N 19°12' W 096°08'0 0.0
2018-Jun-10 08:59N 19°12' W 096°08'0 0.0
2018-Jun-10 08:29N 19°12' W 096°08'0 0.0
2018-Jun-10 07:56N 19°12' W 096°08'0 0.0
2018-Jun-10 07:29N 19°12' W 096°08'0 0.0
2018-Jun-10 06:59N 19°12' W 096°08'0 0.0
2018-Jun-10 06:29N 19°12' W 096°08'0 0.0
2018-Jun-10 05:59N 19°12' W 096°08'0 0.0
2018-Jun-10 05:29N 19°12' W 096°08'0 0.0
2018-Jun-10 04:56N 19°12' W 096°08'0 0.6
2018-Jun-10 04:30N 19°12' W 096°08'0 0.0
2018-Jun-10 03:57N 19°12' W 096°08'0 0.0
2018-Jun-10 03:30N 19°12' W 096°08'0 0.0
2018-Jun-10 03:00N 19°12' W 096°08'0 0.0
2018-Jun-10 02:30N 19°12' W 096°08'0 0.0
2018-Jun-10 01:57N 19°12' W 096°08'0 0.0
2018-Jun-10 01:30N 19°12' W 096°08'0 0.0
2018-Jun-10 01:00N 19°12' W 096°08'0 0.0
2018-Jun-10 00:30N 19°12' W 096°08'0 0.0
2018-Jun-09 23:57N 19°12' W 096°08'0 0.0
2018-Jun-09 23:30N 19°12' W 096°08'0 0.0
2018-Jun-09 23:00N 19°12' W 096°08'0 0.0
2018-Jun-09 22:30N 19°12' W 096°08'0 0.0
2018-Jun-09 21:57N 19°12' W 096°08'0 0.0
2018-Jun-09 21:30N 19°12' W 096°08'0 0.0
2018-Jun-09 21:00N 19°12' W 096°08'0 0.0
2018-Jun-09 20:30N 19°12' W 096°08'0 0.0
2018-Jun-09 19:57N 19°12' W 096°08'0 0.0
2018-Jun-09 19:30N 19°12' W 096°08'0 0.0
2018-Jun-09 19:00N 19°12' W 096°08'1 1.1
2018-Jun-09 18:30N 19°12' W 096°08'1 1.0
2018-Jun-09 17:57N 19°12' W 096°08'0 0.6
2018-Jun-09 17:30N 19°12' W 096°08'1 2.6
2018-Jun-09 16:59N 19°12' W 096°06'2 3.2
2018-Jun-09 16:30N 19°12' W 096°08'0 0.0
2018-Jun-09 15:57N 19°12' W 096°08'1 0.9
2018-Jun-09 14:56N 19°13' W 096°08'1 2.0
2018-Jun-09 14:30N 19°12' W 096°07'0 0.7
2018-Jun-09 13:59N 19°12' W 096°08'0 0.0
2018-Jun-09 13:28N 19°12' W 096°08'0 0.0
2018-Jun-09 12:58N 19°12' W 096°08'0 0.0
2018-Jun-09 12:28N 19°12' W 096°08'0 0.0
2018-Jun-09 11:58N 19°12' W 096°08'0 0.0
2018-Jun-09 11:28N 19°12' W 096°08'0 0.0
2018-Jun-09 10:58N 19°12' W 096°08'0 0.0
2018-Jun-09 10:28N 19°12' W 096°08'0 0.0
2018-Jun-09 09:58N 19°12' W 096°08'0 0.0
2018-Jun-09 09:28N 19°12' W 096°08'0 0.0
2018-Jun-09 08:58N 19°12' W 096°08'0 0.0
2018-Jun-09 08:28N 19°12' W 096°08'1 1.3
2018-Jun-09 08:00N 19°12' W 096°08'0 0.5
2018-Jun-09 07:29N 19°12' W 096°08'2 4.5
2018-Jun-09 06:59N 19°12' W 096°06'2 4.1
2018-Jun-09 06:28N 19°12' W 096°08'0 0.0
2018-Jun-09 05:58N 19°12' W 096°08'0 0.0
2018-Jun-09 05:28N 19°12' W 096°08'0 0.0
2018-Jun-09 04:58N 19°12' W 096°08'0 0.0
2018-Jun-09 04:28N 19°12' W 096°08'0 0.0
2018-Jun-09 03:58N 19°12' W 096°08'0 0.0
2018-Jun-09 03:28N 19°12' W 096°08'0 0.0
2018-Jun-09 02:58N 19°12' W 096°08'0 0.0
2018-Jun-09 02:28N 19°12' W 096°08'0 0.0
2018-Jun-09 01:58N 19°12' W 096°08'0 0.0
2018-Jun-09 01:28N 19°12' W 096°08'0 0.0
2018-Jun-09 00:58N 19°12' W 096°08'0 0.0
2018-Jun-09 00:25N 19°12' W 096°08'0 0.0
2018-Jun-08 23:58N 19°12' W 096°08'0 0.0
2018-Jun-08 23:30N 19°12' W 096°08'1 1.1
2018-Jun-08 22:58N 19°12' W 096°07'1 2.0
2018-Jun-08 22:30N 19°12' W 096°08'1 1.2
2018-Jun-08 21:59N 19°12' W 096°08'0 0.0
2018-Jun-08 21:29N 19°12' W 096°08'0 0.0
2018-Jun-08 20:54N 19°12' W 096°08'0 0.0
2018-Jun-08 20:30N 19°12' W 096°08'0 0.0
2018-Jun-08 19:59N 19°12' W 096°08'0 0.0
2018-Jun-08 19:29N 19°12' W 096°08'0 0.0
2018-Jun-08 18:59N 19°12' W 096°08'0 0.0
2018-Jun-08 18:29N 19°12' W 096°08'0 0.0
2018-Jun-08 17:56N 19°12' W 096°08'2 4.7
2018-Jun-08 17:28N 19°12' W 096°05'2 4.0
2018-Jun-08 16:55N 19°12' W 096°08'1 1.3
2018-Jun-08 16:29N 19°13' W 096°08'1 1.7
2018-Jun-08 15:59N 19°12' W 096°08'0 0.0
2018-Jun-08 15:29N 19°12' W 096°08'0 0.0
2018-Jun-08 14:59N 19°12' W 096°08'0 0.0
2018-Jun-08 14:30N 19°12' W 096°08'0 0.0
2018-Jun-08 14:00N 19°12' W 096°08'1 1.1
2018-Jun-08 13:30N 19°12' W 096°07'2 3.7
2018-Jun-08 13:00N 19°12' W 096°05'3 6.5
2018-Jun-08 12:29N 19°12' W 096°02'3 5.4
2018-Jun-08 12:00N 19°12' W 096°04'3 5.1
2018-Jun-08 11:27N 19°12' W 096°07'0 0.7
2018-Jun-08 10:55N 19°12' W 096°08'3 7.6
2018-Jun-08 10:30N 19°11' W 096°04'3 6.4
2018-Jun-08 10:00N 19°12' W 096°08'0 0.0
2018-Jun-08 09:30N 19°12' W 096°08'0 0.0
2018-Jun-08 09:00N 19°12' W 096°08'0 0.0
2018-Jun-08 08:27N 19°12' W 096°08'0 0.0
2018-Jun-08 08:00N 19°12' W 096°08'0 0.0
2018-Jun-08 07:27N 19°12' W 096°08'0 0.0
2018-Jun-08 07:00N 19°12' W 096°08'0 0.0
2018-Jun-08 06:27N 19°12' W 096°08'0 0.0
2018-Jun-08 05:57N 19°12' W 096°08'0 0.0
2018-Jun-08 05:30N 19°12' W 096°08'0 0.0
2018-Jun-08 05:00N 19°12' W 096°08'0 0.0
2018-Jun-08 04:30N 19°12' W 096°08'0 0.0
2018-Jun-08 04:00N 19°12' W 096°08'0 0.0
2018-Jun-08 03:27N 19°12' W 096°08'0 0.0
2018-Jun-08 03:00N 19°12' W 096°08'0 0.0
2018-Jun-08 02:30N 19°12' W 096°08'0 0.0
2018-Jun-08 02:00N 19°12' W 096°08'0 0.7
2018-Jun-08 01:31N 19°12' W 096°08'0 0.9
2018-Jun-08 01:00N 19°13' W 096°08'0 0.8
2018-Jun-08 00:30N 19°12' W 096°08'0 0.4
2018-Jun-07 23:52N 19°12' W 096°08'1 1.7
2018-Jun-07 23:29N 19°13' W 096°08'1 1.6
2018-Jun-07 22:59N 19°12' W 096°08'0 0.0
2018-Jun-07 22:26N 19°12' W 096°08'0 0.0
2018-Jun-07 21:59N 19°12' W 096°08'0 0.0
2018-Jun-07 21:29N 19°12' W 096°08'0 0.0
2018-Jun-07 20:56N 19°12' W 096°08'0 0.0
2018-Jun-07 20:29N 19°12' W 096°08'0 0.0
2018-Jun-07 19:59N 19°12' W 096°08'0 0.0
2018-Jun-07 19:29N 19°12' W 096°08'0 0.0
2018-Jun-07 18:59N 19°12' W 096°08'0 0.0
2018-Jun-07 18:29N 19°12' W 096°08'0 0.0
2018-Jun-07 17:59N 19°12' W 096°08'0 0.0
2018-Jun-07 17:29N 19°12' W 096°08'0 0.0
2018-Jun-07 16:59N 19°12' W 096°08'0 0.0
2018-Jun-07 16:29N 19°12' W 096°08'0 1.0
2018-Jun-07 16:00N 19°12' W 096°08'0 0.3
2018-Jun-07 15:26N 19°12' W 096°08'0 0.7
2018-Jun-07 14:58N 19°12' W 096°08'0 0.0
2018-Jun-07 14:30N 19°12' W 096°08'0 0.5
2018-Jun-07 13:59N 19°12' W 096°08'0 0.0
2018-Jun-07 13:26N 19°12' W 096°08'0 0.0
2018-Jun-07 12:56N 19°12' W 096°08'0 0.0
2018-Jun-07 12:29N 19°12' W 096°08'0 0.0
2018-Jun-07 11:53N 19°12' W 096°08'0 1.1
2018-Jun-07 11:30N 19°13' W 096°08'1 1.2
2018-Jun-07 10:59N 19°12' W 096°08'3 5.1
2018-Jun-07 10:30N 19°12' W 096°05'3 4.3
2018-Jun-07 09:53N 19°12' W 096°08'0 0.0
2018-Jun-07 09:29N 19°12' W 096°08'0 0.0
2018-Jun-07 08:59N 19°12' W 096°08'0 0.0
2018-Jun-07 08:29N 19°12' W 096°08'0 0.0
2018-Jun-07 07:59N 19°12' W 096°08'0 0.0
2018-Jun-07 07:23N 19°12' W 096°08'0 0.0
2018-Jun-07 06:59N 19°12' W 096°08'0 0.0
2018-Jun-07 06:29N 19°12' W 096°08'0 0.0
2018-Jun-07 05:59N 19°12' W 096°08'0 0.0
2018-Jun-07 05:29N 19°12' W 096°08'0 0.0
2018-Jun-07 04:59N 19°12' W 096°08'0 0.0
2018-Jun-07 04:29N 19°12' W 096°08'0 0.0
2018-Jun-07 03:59N 19°12' W 096°08'0 0.0
2018-Jun-07 03:29N 19°12' W 096°08'0 0.0
2018-Jun-07 02:59N 19°12' W 096°08'0 0.0
2018-Jun-07 02:29N 19°12' W 096°08'0 0.0
2018-Jun-07 01:59N 19°12' W 096°08'0 0.0
2018-Jun-07 01:29N 19°12' W 096°08'0 0.0
2018-Jun-07 00:59N 19°12' W 096°08'0 0.0
2018-Jun-07 00:29N 19°12' W 096°08'0 0.0
2018-Jun-06 23:59N 19°12' W 096°08'0 0.0
2018-Jun-06 23:29N 19°12' W 096°08'0 0.0
2018-Jun-06 22:59N 19°12' W 096°08'0 0.0
2018-Jun-06 22:26N 19°12' W 096°08'0 0.0
2018-Jun-06 21:56N 19°12' W 096°08'0 0.0
2018-Jun-06 21:29N 19°12' W 096°08'0 0.0
2018-Jun-06 20:59N 19°12' W 096°08'0 0.0
2018-Jun-06 20:29N 19°12' W 096°08'0 0.0
2018-Jun-06 19:56N 19°12' W 096°08'0 0.0
2018-Jun-06 19:29N 19°12' W 096°08'0 0.0
2018-Jun-06 18:59N 19°12' W 096°08'0 0.0
2018-Jun-06 18:29N 19°12' W 096°08'0 0.0
2018-Jun-06 17:56N 19°12' W 096°08'0 0.0
2018-Jun-06 17:29N 19°12' W 096°08'0 0.0
2018-Jun-06 16:59N 19°12' W 096°08'0 0.0
2018-Jun-06 16:29N 19°12' W 096°08'0 0.0
2018-Jun-06 15:59N 19°12' W 096°08'0 0.0
2018-Jun-06 15:29N 19°12' W 096°08'0 0.0
2018-Jun-06 06:08N 19°12' W 096°08'0 2.0
2018-Jun-06 06:00N 19°12' W 096°08'1 1.3
2018-Jun-06 05:30N 19°13' W 096°08'3 5.2
2018-Jun-06 04:58N 19°12' W 096°05'1 3.1
2018-Jun-06 04:30N 19°12' W 096°04'4 7.1
2018-Jun-06 03:58N 19°12' W 096°08'0 0.0
2018-Jun-06 03:25N 19°12' W 096°08'0 0.0
2018-Jun-06 02:58N 19°12' W 096°08'0 0.0
2018-Jun-06 02:28N 19°12' W 096°08'0 0.0
2018-Jun-06 01:58N 19°12' W 096°08'0 0.0
2018-Jun-06 01:28N 19°12' W 096°08'0 0.0
2018-Jun-06 00:58N 19°12' W 096°08'0 0.0
2018-Jun-06 00:28N 19°12' W 096°08'0 0.0
2018-Jun-05 23:59N 19°12' W 096°08'0 0.0
2018-Jun-05 23:30N 19°12' W 096°08'0 0.0
2018-Jun-05 22:57N 19°12' W 096°08'0 0.0
2018-Jun-05 22:29N 19°12' W 096°08'0 0.0
2018-Jun-05 21:55N 19°12' W 096°08'0 0.0
2018-Jun-05 21:28N 19°12' W 096°08'0 0.0
2018-Jun-05 20:58N 19°12' W 096°08'  

Dump ship's entire track history